createdAt,value
2023-01-25T00:00:51.628Z,0.40
2023-01-25T00:03:18.410Z,0.50
2023-01-25T00:05:45.099Z,0.40
2023-01-25T00:08:11.731Z,0.40
2023-01-25T00:10:38.475Z,0.40
2023-01-25T00:13:05.130Z,0.50
2023-01-25T00:15:31.773Z,0.50
2023-01-25T00:17:58.494Z,0.40
2023-01-25T00:20:25.297Z,0.40
2023-01-25T00:22:51.949Z,0.40
2023-01-25T00:25:18.569Z,0.40
2023-01-25T00:27:45.229Z,0.40
2023-01-25T00:30:11.987Z,0.40
2023-01-25T00:32:49.484Z,0.40
2023-01-25T00:35:16.232Z,0.30
2023-01-25T00:37:43.883Z,0.40
2023-01-25T00:40:11.385Z,0.40
2023-01-25T00:42:38.376Z,0.40
2023-01-25T00:45:05.980Z,0.40
2023-01-25T00:47:32.909Z,0.30
2023-01-25T00:50:03.657Z,0.30
2023-01-25T00:52:30.277Z,0.40
2023-01-25T00:54:57.151Z,0.40
2023-01-25T00:57:24.177Z,0.40
2023-01-25T00:59:50.906Z,0.40
2023-01-25T01:02:17.597Z,0.40
2023-01-25T01:04:44.768Z,0.30
2023-01-25T01:07:12.302Z,0.30
2023-01-25T01:09:39.071Z,0.30
2023-01-25T01:12:05.802Z,0.30
2023-01-25T01:14:32.529Z,0.20
2023-01-25T01:16:59.265Z,0.20
2023-01-25T01:19:26.108Z,0.30
2023-01-25T01:21:52.763Z,0.30
2023-01-25T01:24:20.130Z,0.30
2023-01-25T01:26:47.011Z,0.30
2023-01-25T01:29:13.757Z,0.20
2023-01-25T01:31:40.703Z,0.20
2023-01-25T01:34:14.591Z,0.20
2023-01-25T01:36:41.287Z,0.20
2023-01-25T01:39:08.440Z,0.20
2023-01-25T01:41:35.353Z,0.10
2023-01-25T01:44:02.413Z,0.10
2023-01-25T01:46:35.824Z,0.20
2023-01-25T01:49:02.481Z,0.20
2023-01-25T01:51:35.962Z,0.20
2023-01-25T01:54:08.104Z,0.20
2023-01-25T01:56:54.498Z,0.20
2023-01-25T01:59:22.586Z,0.20
2023-01-25T02:01:49.236Z,0.20
2023-01-25T02:04:18.695Z,0.10
2023-01-25T02:06:52.328Z,0.10
2023-01-25T02:09:21.127Z,0.10
2023-01-25T02:11:48.063Z,0.10
2023-01-25T02:14:15.449Z,0.10
2023-01-25T02:16:42.415Z,0.10
2023-01-25T02:19:12.593Z,0.10
2023-01-25T02:21:41.236Z,0.10
2023-01-25T02:24:11.084Z,0.00
2023-01-25T02:26:39.294Z,0.00
2023-01-25T02:29:06.983Z,0.00
2023-01-25T02:31:33.952Z,0.00
2023-01-25T02:34:00.608Z,0.00
2023-01-25T02:36:29.235Z,0.00
2023-01-25T02:39:02.116Z,0.00
2023-01-25T02:41:31.992Z,0.00
2023-01-25T02:43:59.735Z,0.00
2023-01-25T02:46:34.086Z,0.00
2023-01-25T02:49:01.921Z,0.00
2023-01-25T02:51:31.068Z,0.10
2023-01-25T02:53:57.952Z,0.00
2023-01-25T02:56:25.122Z,0.10
2023-01-25T02:58:52.190Z,0.00
2023-01-25T03:01:19.881Z,0.00
2023-01-25T03:03:46.620Z,0.00
2023-01-25T03:06:13.301Z,0.00
2023-01-25T03:08:43.809Z,0.00
2023-01-25T03:11:10.569Z,0.00
2023-01-25T03:13:37.740Z,0.00
2023-01-25T03:16:09.568Z,0.00
2023-01-25T03:18:38.422Z,0.00
2023-01-25T03:21:09.420Z,0.00
2023-01-25T03:23:36.425Z,0.00
2023-01-25T03:26:05.064Z,0.00
2023-01-25T03:28:32.866Z,0.00
2023-01-25T03:30:59.599Z,0.00
2023-01-25T03:33:26.324Z,0.00
2023-01-25T03:35:54.254Z,0.00
2023-01-25T03:38:21.786Z,0.10
2023-01-25T03:40:48.829Z,0.10
2023-01-25T03:43:15.907Z,0.10
2023-01-25T03:45:42.929Z,0.00
2023-01-25T03:48:09.641Z,0.00
2023-01-25T03:50:36.300Z,0.10
2023-01-25T03:53:08.065Z,0.00
2023-01-25T03:55:35.351Z,0.00
2023-01-25T03:58:02.218Z,0.00
2023-01-25T04:00:28.906Z,0.10
2023-01-25T04:03:00.118Z,0.10
2023-01-25T04:05:28.092Z,0.10
2023-01-25T04:07:55.400Z,0.20
2023-01-25T04:10:30.271Z,0.20
2023-01-25T04:12:57.167Z,0.10
2023-01-25T04:15:24.127Z,0.10
2023-01-25T04:17:51.516Z,0.10
2023-01-25T04:20:23.418Z,0.10
2023-01-25T04:22:50.222Z,0.00
2023-01-25T04:25:18.913Z,0.00
2023-01-25T04:27:50.097Z,0.00
2023-01-25T04:30:17.442Z,0.00
2023-01-25T04:32:45.495Z,0.00
2023-01-25T04:35:23.693Z,0.00
2023-01-25T04:37:57.134Z,0.00
2023-01-25T04:40:26.562Z,0.00
2023-01-25T04:42:53.284Z,0.00
2023-01-25T04:45:20.042Z,0.00
2023-01-25T04:47:47.531Z,-0.10
2023-01-25T04:50:15.147Z,-0.10
2023-01-25T04:52:42.245Z,-0.10
2023-01-25T04:55:09.931Z,-0.10
2023-01-25T04:57:41.871Z,-0.10
2023-01-25T05:00:08.949Z,-0.20
2023-01-25T05:02:37.299Z,-0.20
2023-01-25T05:05:04.271Z,-0.20
2023-01-25T05:07:31.853Z,-0.10
2023-01-25T05:09:58.595Z,-0.10
2023-01-25T05:12:26.790Z,-0.10
2023-01-25T05:15:00.928Z,-0.10
2023-01-25T05:17:27.598Z,-0.10
2023-01-25T05:19:55.207Z,-0.10
2023-01-25T05:22:23.175Z,0.00
2023-01-25T05:24:52.758Z,0.00
2023-01-25T05:27:20.932Z,0.00
2023-01-25T05:29:53.384Z,0.10
2023-01-25T05:32:23.556Z,0.10
2023-01-25T05:34:50.432Z,0.10
2023-01-25T05:37:19.102Z,0.00
2023-01-25T05:39:47.831Z,0.00
2023-01-25T05:42:15.567Z,0.00
2023-01-25T05:44:43.272Z,0.00
2023-01-25T05:47:14.996Z,0.00
2023-01-25T05:49:42.180Z,-0.10
2023-01-25T05:52:13.874Z,-0.10
2023-01-25T05:54:41.182Z,-0.20
2023-01-25T05:57:09.718Z,-0.20
2023-01-25T05:59:36.371Z,-0.30
2023-01-25T06:02:06.394Z,-0.30
2023-01-25T06:04:33.174Z,-0.30
2023-01-25T06:07:00.315Z,-0.30
2023-01-25T06:09:27.464Z,-0.40
2023-01-25T06:11:54.146Z,-0.30
2023-01-25T06:14:21.386Z,-0.30
2023-01-25T06:16:48.404Z,-0.30
2023-01-25T06:19:44.791Z,-0.30
2023-01-25T06:22:37.362Z,-0.40
2023-01-25T06:25:04.209Z,-0.40
2023-01-25T06:27:30.945Z,-0.40
2023-01-25T06:29:57.773Z,-0.40
2023-01-25T06:32:25.898Z,-0.40
2023-01-25T06:34:52.713Z,-0.30
2023-01-25T06:37:22.973Z,-0.40
2023-01-25T06:39:50.068Z,-0.30
2023-01-25T06:42:16.685Z,-0.30
2023-01-25T06:44:43.277Z,-0.30
2023-01-25T06:47:10.018Z,-0.30
2023-01-25T06:49:36.883Z,-0.30
2023-01-25T06:52:03.962Z,-0.30
2023-01-25T06:54:30.562Z,-0.30
2023-01-25T06:56:57.312Z,-0.20
2023-01-25T06:59:23.926Z,-0.20
2023-01-25T07:01:50.845Z,-0.20
2023-01-25T07:04:17.521Z,-0.20
2023-01-25T07:06:44.878Z,-0.20
2023-01-25T07:09:13.531Z,-0.20
2023-01-25T07:11:40.438Z,-0.20
2023-01-25T07:14:07.460Z,-0.30
2023-01-25T07:16:37.159Z,-0.30
2023-01-25T07:19:04.624Z,-0.30
2023-01-25T07:21:31.313Z,-0.30
2023-01-25T07:24:02.575Z,-0.30
2023-01-25T07:26:29.921Z,-0.30
2023-01-25T07:28:57.423Z,-0.30
2023-01-25T07:31:25.211Z,-0.40
2023-01-25T07:33:53.509Z,-0.40
2023-01-25T07:36:20.147Z,-0.30
2023-01-25T07:38:47.085Z,-0.40
2023-01-25T07:41:14.603Z,-0.40
2023-01-25T07:43:41.278Z,-0.40
2023-01-25T07:46:13.911Z,-0.30
2023-01-25T07:48:41.484Z,-0.30
2023-01-25T07:51:12.704Z,-0.30
2023-01-25T07:53:40.203Z,-0.30
2023-01-25T07:56:07.935Z,-0.30
2023-01-25T07:58:34.750Z,-0.30
2023-01-25T08:01:11.616Z,-0.20
2023-01-25T08:03:38.255Z,-0.20
2023-01-25T08:06:08.076Z,-0.20
2023-01-25T08:08:35.999Z,-0.30
2023-01-25T08:11:10.575Z,-0.30
2023-01-25T08:13:37.817Z,-0.20
2023-01-25T08:16:04.812Z,-0.20
2023-01-25T08:18:31.533Z,-0.20
2023-01-25T08:20:59.323Z,-0.30
2023-01-25T08:23:26.613Z,-0.30
2023-01-25T08:25:53.402Z,-0.30
2023-01-25T08:28:20.205Z,-0.20
2023-01-25T08:30:56.963Z,-0.20
2023-01-25T08:33:24.366Z,-0.20
2023-01-25T08:35:55.171Z,-0.20
2023-01-25T08:38:21.887Z,-0.20
2023-01-25T08:40:48.636Z,-0.20
2023-01-25T08:43:15.271Z,-0.20
2023-01-25T08:45:41.898Z,-0.20
2023-01-25T08:48:08.544Z,-0.20
2023-01-25T08:50:35.183Z,-0.10
2023-01-25T08:53:01.822Z,-0.10
2023-01-25T08:55:28.491Z,-0.10
2023-01-25T08:57:56.629Z,-0.10
2023-01-25T09:00:24.202Z,-0.10
2023-01-25T09:02:50.850Z,0.00
2023-01-25T09:05:17.475Z,0.00
2023-01-25T09:07:44.186Z,0.00
2023-01-25T09:10:11.509Z,0.10
2023-01-25T09:12:38.608Z,0.00
2023-01-25T09:15:05.461Z,0.00
2023-01-25T09:17:32.140Z,0.00
2023-01-25T09:19:58.887Z,0.00
2023-01-25T09:22:25.521Z,0.10
2023-01-25T09:24:53.920Z,0.10
2023-01-25T09:27:20.778Z,0.10
2023-01-25T09:30:00.987Z,0.10
2023-01-25T09:32:29.147Z,0.10
2023-01-25T09:34:56.068Z,0.20
2023-01-25T09:37:22.722Z,0.20
2023-01-25T09:39:49.379Z,0.20
2023-01-25T09:42:39.557Z,0.30
2023-01-25T09:45:29.206Z,0.30
2023-01-25T09:48:09.334Z,0.40
2023-01-25T09:50:38.319Z,0.40
2023-01-25T09:53:24.404Z,0.40
2023-01-25T09:55:54.050Z,0.50
2023-01-25T09:58:24.245Z,0.50
2023-01-25T10:00:54.666Z,0.50
2023-01-25T10:03:25.168Z,0.50
2023-01-25T10:05:54.006Z,0.50
2023-01-25T10:08:25.805Z,0.50
2023-01-25T10:10:57.083Z,0.50
2023-01-25T10:13:24.196Z,0.60
2023-01-25T10:15:52.721Z,0.60
2023-01-25T10:18:28.708Z,0.60
2023-01-25T10:20:57.414Z,0.60
2023-01-25T10:23:43.240Z,0.50
2023-01-25T10:26:15.061Z,0.50
2023-01-25T10:28:53.900Z,0.50
2023-01-25T10:31:26.143Z,0.50
2023-01-25T10:33:56.184Z,0.60
2023-01-25T10:36:27.325Z,0.60
2023-01-25T10:38:59.339Z,0.60
2023-01-25T10:41:29.107Z,0.60
2023-01-25T10:44:14.601Z,0.60
2023-01-25T10:46:44.181Z,0.60
2023-01-25T10:49:24.807Z,0.60
2023-01-25T10:51:51.517Z,0.60
2023-01-25T10:54:18.217Z,0.60
2023-01-25T10:56:46.042Z,0.70
2023-01-25T10:59:21.868Z,0.60
2023-01-25T11:01:48.890Z,0.60
2023-01-25T11:04:32.879Z,0.70
2023-01-25T11:07:00.391Z,0.70
2023-01-25T11:09:31.892Z,0.70
2023-01-25T11:12:21.045Z,0.70
2023-01-25T11:14:50.059Z,0.70
2023-01-25T11:17:35.006Z,0.70
2023-01-25T11:20:16.109Z,0.70
2023-01-25T11:22:49.468Z,0.70
2023-01-25T11:25:34.648Z,0.70
2023-01-25T11:28:27.440Z,0.70
2023-01-25T11:30:54.195Z,0.70
2023-01-25T11:33:21.754Z,0.70
2023-01-25T11:36:03.766Z,0.70
2023-01-25T11:38:30.852Z,0.70
2023-01-25T11:41:04.662Z,0.70
2023-01-25T11:43:48.102Z,0.70
2023-01-25T11:46:33.048Z,0.60
2023-01-25T11:48:59.715Z,0.60
2023-01-25T11:51:26.417Z,0.60
2023-01-25T11:54:06.288Z,0.60
2023-01-25T11:56:51.824Z,0.70
2023-01-25T11:59:25.474Z,0.70
2023-01-25T12:02:11.123Z,0.70
2023-01-25T12:04:47.299Z,0.70
2023-01-25T12:07:33.125Z,0.70
2023-01-25T12:10:05.121Z,0.70
2023-01-25T12:12:53.606Z,0.60
2023-01-25T12:15:43.423Z,0.60
2023-01-25T12:18:19.367Z,0.60
2023-01-25T12:21:08.235Z,0.70
2023-01-25T12:23:47.400Z,0.70
2023-01-25T12:26:24.308Z,0.70
2023-01-25T12:28:54.489Z,0.70
2023-01-25T12:31:28.871Z,0.70
2023-01-25T12:34:04.018Z,0.60
2023-01-25T12:36:35.949Z,0.60
2023-01-25T12:39:04.303Z,0.70
2023-01-25T12:41:46.166Z,0.70
2023-01-25T12:44:16.973Z,0.60
2023-01-25T12:46:57.831Z,0.60
2023-01-25T12:49:38.385Z,0.60
2023-01-25T12:52:28.430Z,0.60
2023-01-25T12:54:57.098Z,0.60
2023-01-25T12:57:27.016Z,0.60
2023-01-25T13:00:14.159Z,0.60
2023-01-25T13:02:40.956Z,0.60
2023-01-25T13:05:18.676Z,0.60
2023-01-25T13:07:54.526Z,0.60
2023-01-25T13:10:27.067Z,0.50
2023-01-25T13:13:00.589Z,0.50
2023-01-25T13:15:38.274Z,0.40
2023-01-25T13:18:23.825Z,0.40
2023-01-25T13:20:53.253Z,0.30
2023-01-25T13:23:29.372Z,0.30
2023-01-25T13:26:14.522Z,0.30
2023-01-25T13:28:42.993Z,0.30
2023-01-25T13:31:09.837Z,0.30
2023-01-25T13:33:36.670Z,0.30
2023-01-25T13:36:23.283Z,0.30
2023-01-25T13:38:50.094Z,0.30
2023-01-25T13:41:17.401Z,0.30
2023-01-25T13:43:46.011Z,0.30
2023-01-25T13:46:14.576Z,0.20
2023-01-25T13:48:46.633Z,0.30
2023-01-25T13:51:14.406Z,0.20
2023-01-25T13:53:41.128Z,0.20
2023-01-25T13:56:23.948Z,0.20
2023-01-25T13:58:50.593Z,0.20
2023-01-25T14:01:18.449Z,0.20
2023-01-25T14:03:47.199Z,0.20
2023-01-25T14:06:16.189Z,0.10
2023-01-25T14:08:44.001Z,0.10
2023-01-25T14:11:10.788Z,0.10
2023-01-25T14:13:37.453Z,0.20
2023-01-25T14:16:09.243Z,0.20
2023-01-25T14:18:38.504Z,0.30
2023-01-25T14:21:19.413Z,0.20
2023-01-25T14:23:46.842Z,0.30
2023-01-25T14:26:24.703Z,0.30
2023-01-25T14:29:01.619Z,0.30
2023-01-25T14:31:36.576Z,0.30
2023-01-25T14:34:05.065Z,0.30
2023-01-25T14:36:34.352Z,0.20
2023-01-25T14:39:03.174Z,0.30
2023-01-25T14:41:40.125Z,0.20
2023-01-25T14:44:14.135Z,0.20
2023-01-25T14:46:41.124Z,0.20
2023-01-25T14:49:07.918Z,0.20
2023-01-25T14:51:39.543Z,0.10
2023-01-25T14:54:12.991Z,0.20
2023-01-25T14:56:44.559Z,0.20
2023-01-25T14:59:37.686Z,0.20
2023-01-25T15:02:18.578Z,0.10
2023-01-25T15:04:52.931Z,0.10
2023-01-25T15:07:40.749Z,0.20
2023-01-25T15:10:19.970Z,0.10
2023-01-25T15:13:07.630Z,0.10
2023-01-25T15:15:55.316Z,0.10
2023-01-25T15:18:41.055Z,0.10
2023-01-25T15:21:27.483Z,0.00
2023-01-25T15:23:55.109Z,0.00
2023-01-25T15:26:23.082Z,0.00
2023-01-25T15:28:50.572Z,0.00
2023-01-25T15:31:18.798Z,-0.10
2023-01-25T15:33:45.572Z,-0.10
2023-01-25T15:36:12.802Z,-0.10
2023-01-25T15:38:39.428Z,-0.10
2023-01-25T15:41:06.677Z,-0.20
2023-01-25T15:43:33.548Z,-0.20
2023-01-25T15:46:00.754Z,-0.20
2023-01-25T15:48:34.494Z,-0.20
2023-01-25T15:51:01.502Z,-0.20
2023-01-25T15:53:28.365Z,-0.20
2023-01-25T15:55:57.711Z,-0.20
2023-01-25T15:58:26.906Z,-0.20
2023-01-25T16:00:53.703Z,-0.20
2023-01-25T16:03:20.508Z,-0.20
2023-01-25T16:05:52.531Z,-0.20
2023-01-25T16:08:20.919Z,-0.20
2023-01-25T16:10:47.883Z,-0.20
2023-01-25T16:13:14.558Z,-0.20
2023-01-25T16:15:42.213Z,-0.20
2023-01-25T16:18:15.112Z,-0.20
2023-01-25T16:20:43.312Z,-0.20
2023-01-25T16:23:12.127Z,-0.20
2023-01-25T16:25:39.606Z,-0.20
2023-01-25T16:28:06.733Z,-0.20
2023-01-25T16:30:34.537Z,-0.30
2023-01-25T16:33:01.501Z,-0.30
2023-01-25T16:35:28.352Z,-0.20
2023-01-25T16:37:56.303Z,-0.30
2023-01-25T16:40:25.006Z,-0.20
2023-01-25T16:42:52.112Z,-0.20
2023-01-25T16:45:23.884Z,-0.20
2023-01-25T16:47:51.147Z,-0.20
2023-01-25T16:50:18.902Z,-0.20
2023-01-25T16:52:46.142Z,-0.20
2023-01-25T16:55:13.800Z,-0.20
2023-01-25T16:57:41.369Z,-0.20
2023-01-25T17:00:12.276Z,-0.30
2023-01-25T17:02:46.818Z,-0.30
2023-01-25T17:05:23.891Z,-0.30
2023-01-25T17:07:51.330Z,-0.30
2023-01-25T17:10:18.088Z,-0.30
2023-01-25T17:12:45.881Z,-0.30
2023-01-25T17:15:12.539Z,-0.30
2023-01-25T17:17:39.367Z,-0.30
2023-01-25T17:20:06.272Z,-0.40
2023-01-25T17:22:37.351Z,-0.40
2023-01-25T17:25:05.327Z,-0.30
2023-01-25T17:27:32.342Z,-0.40
2023-01-25T17:29:59.017Z,-0.40
2023-01-25T17:32:26.052Z,-0.50
2023-01-25T17:34:53.796Z,-0.50
2023-01-25T17:37:20.593Z,-0.50
2023-01-25T17:39:48.428Z,-0.50
2023-01-25T17:42:15.917Z,-0.50
2023-01-25T17:44:42.557Z,-0.50
2023-01-25T17:47:09.230Z,-0.50
2023-01-25T17:49:35.939Z,-0.50
2023-01-25T17:52:02.833Z,-0.50
2023-01-25T17:54:29.541Z,-0.50
2023-01-25T17:56:56.474Z,-0.50
2023-01-25T17:59:23.154Z,-0.50
2023-01-25T18:01:50.575Z,-0.50
2023-01-25T18:04:18.135Z,-0.50
2023-01-25T18:06:44.882Z,-0.50
2023-01-25T18:09:11.602Z,-0.50
2023-01-25T18:11:41.024Z,-0.40
2023-01-25T18:14:10.701Z,-0.40
2023-01-25T18:16:38.782Z,-0.40
2023-01-25T18:19:06.353Z,-0.40
2023-01-25T18:21:33.692Z,-0.40
2023-01-25T18:24:02.087Z,-0.50
2023-01-25T18:26:30.516Z,-0.40
2023-01-25T18:29:26.515Z,-0.50
2023-01-25T18:31:53.465Z,-0.50
2023-01-25T18:34:20.195Z,-0.50
2023-01-25T18:36:48.276Z,-0.50
2023-01-25T18:39:15.071Z,-0.60
2023-01-25T18:41:43.270Z,-0.60
2023-01-25T18:44:11.403Z,-0.60
2023-01-25T18:46:40.391Z,-0.60
2023-01-25T18:49:07.653Z,-0.60
2023-01-25T18:51:38.943Z,-0.60
2023-01-25T18:54:11.118Z,-0.60
2023-01-25T18:56:37.762Z,-0.60
2023-01-25T18:59:04.551Z,-0.50
2023-01-25T19:01:31.781Z,-0.50
2023-01-25T19:03:58.690Z,-0.50
2023-01-25T19:06:25.408Z,-0.50
2023-01-25T19:08:54.411Z,-0.50
2023-01-25T19:11:21.691Z,-0.50
2023-01-25T19:13:48.536Z,-0.50
2023-01-25T19:16:16.574Z,-0.50
2023-01-25T19:18:46.887Z,-0.50
2023-01-25T19:21:14.411Z,-0.50
2023-01-25T19:23:41.227Z,-0.60
2023-01-25T19:26:08.887Z,-0.60
2023-01-25T19:28:35.653Z,-0.50
2023-01-25T19:31:09.603Z,-0.50
2023-01-25T19:33:36.658Z,-0.50
2023-01-25T19:36:04.656Z,-0.60
2023-01-25T19:38:31.394Z,-0.50
2023-01-25T19:41:08.584Z,-0.60
2023-01-25T19:43:36.579Z,-0.50
2023-01-25T19:46:13.961Z,-0.50
2023-01-25T19:48:41.478Z,-0.50
2023-01-25T19:51:08.889Z,-0.50
2023-01-25T19:53:35.701Z,-0.50
2023-01-25T19:56:03.654Z,-0.50
2023-01-25T19:58:30.715Z,-0.50
2023-01-25T20:01:04.959Z,-0.50
2023-01-25T20:03:31.874Z,-0.60
2023-01-25T20:05:59.085Z,-0.60
2023-01-25T20:08:35.271Z,-0.60
2023-01-25T20:11:03.773Z,-0.60
2023-01-25T20:13:30.749Z,-0.70
2023-01-25T20:15:57.582Z,-0.70
2023-01-25T20:18:24.508Z,-0.70
2023-01-25T20:20:54.963Z,-0.70
2023-01-25T20:23:21.752Z,-0.70
2023-01-25T20:25:56.102Z,-0.70
2023-01-25T20:28:23.093Z,-0.80
2023-01-25T20:30:50.058Z,-0.80
2023-01-25T20:33:18.262Z,-0.80
2023-01-25T20:35:45.526Z,-0.80
2023-01-25T20:38:12.347Z,-0.80
2023-01-25T20:40:39.022Z,-0.80
2023-01-25T20:43:05.865Z,-0.80
2023-01-25T20:45:34.709Z,-0.80
2023-01-25T20:48:01.583Z,-0.80
2023-01-25T20:50:28.240Z,-0.70
2023-01-25T20:52:54.872Z,-0.70
2023-01-25T20:55:21.649Z,-0.70
2023-01-25T20:57:48.418Z,-0.70
2023-01-25T21:00:15.415Z,-0.70
2023-01-25T21:02:42.192Z,-0.80
2023-01-25T21:05:09.375Z,-0.80
2023-01-25T21:07:36.463Z,-0.80
2023-01-25T21:10:03.194Z,-0.70
2023-01-25T21:12:31.459Z,-0.80
2023-01-25T21:14:58.276Z,-0.80
2023-01-25T21:17:24.963Z,-0.80
2023-01-25T21:19:51.830Z,-0.80
2023-01-25T21:22:19.317Z,-0.80
2023-01-25T21:24:46.128Z,-0.80
2023-01-25T21:27:12.786Z,-0.80
2023-01-25T21:29:39.444Z,-0.80
2023-01-25T21:32:06.218Z,-0.80
2023-01-25T21:34:33.790Z,-0.80
2023-01-25T21:37:00.439Z,-0.80
2023-01-25T21:39:27.192Z,-0.90
2023-01-25T21:41:53.905Z,-0.90
2023-01-25T21:44:39.552Z,-0.90
2023-01-25T21:47:28.914Z,-0.90
2023-01-25T21:50:11.687Z,-1.00
2023-01-25T21:52:38.477Z,-1.00
2023-01-25T21:55:05.336Z,-1.00
2023-01-25T21:57:32.024Z,-1.00
2023-01-25T21:59:58.854Z,-1.00
2023-01-25T22:02:25.541Z,-1.00
2023-01-25T22:04:52.219Z,-1.00
2023-01-25T22:07:18.949Z,-1.00
2023-01-25T22:09:45.635Z,-0.90
2023-01-25T22:12:12.800Z,-1.00
2023-01-25T22:14:39.496Z,-1.00
2023-01-25T22:17:06.455Z,-1.00
2023-01-25T22:19:33.451Z,-1.00
2023-01-25T22:22:00.182Z,-1.00
2023-01-25T22:24:27.280Z,-1.00
2023-01-25T22:26:59.519Z,-1.00
2023-01-25T22:29:26.711Z,-1.00
2023-01-25T22:31:53.538Z,-1.00
2023-01-25T22:34:20.237Z,-1.00
2023-01-25T22:36:47.129Z,-1.00
2023-01-25T22:39:14.813Z,-1.00
2023-01-25T22:41:41.758Z,-1.00
2023-01-25T22:44:09.754Z,-1.00
2023-01-25T22:46:36.494Z,-1.00
2023-01-25T22:49:04.667Z,-1.00
2023-01-25T22:51:31.504Z,-1.00
2023-01-25T22:53:58.630Z,-1.00
2023-01-25T22:56:26.964Z,-1.00
2023-01-25T22:58:53.661Z,-1.10
2023-01-25T23:01:21.447Z,-1.10
2023-01-25T23:03:48.917Z,-1.10
2023-01-25T23:06:16.787Z,-1.20
2023-01-25T23:08:44.233Z,-1.20
2023-01-25T23:11:12.451Z,-1.20
2023-01-25T23:13:42.126Z,-1.20
2023-01-25T23:16:09.677Z,-1.20
2023-01-25T23:18:51.688Z,-1.20
2023-01-25T23:21:23.463Z,-1.30
2023-01-25T23:23:51.338Z,-1.20
2023-01-25T23:26:18.029Z,-1.20
2023-01-25T23:28:50.806Z,-1.30
2023-01-25T23:31:18.344Z,-1.30
2023-01-25T23:33:49.382Z,-1.30
2023-01-25T23:36:17.802Z,-1.30
2023-01-25T23:38:45.313Z,-1.30
2023-01-25T23:41:12.634Z,-1.40
2023-01-25T23:43:39.630Z,-1.40
2023-01-25T23:46:06.721Z,-1.40
2023-01-25T23:48:33.682Z,-1.40
2023-01-25T23:51:00.381Z,-1.40
2023-01-25T23:53:27.425Z,-1.40
2023-01-25T23:55:54.973Z,-1.40
2023-01-25T23:58:22.127Z,-1.30
